Time;durP1;ratioP1;P1;durP2;ratioP2;P2;SDS_P1;SDS_P2;PMS_P1;PMS_P2;Temp;Humidity;BMP_temperature;BMP_pressure;BME280_temperature;BME280_humidity;BME280_pressure;Samples;Min_cycle;Max_cycle;Signal;HPM_P1;HPM_P2
2022/07/21 00:01:04;;;;;;;5.40;5.20;;;;;;;19.77;100.00;101446.25;6046485;23;20057;-72
2022/07/21 00:03:31;;;;;;;7.30;6.90;;;;;;;19.83;100.00;101438.59;6027032;23;20034;-73
2022/07/21 00:05:57;;;;;;;6.20;5.90;;;;;;;19.10;100.00;101405.22;6057489;23;20018;-72
2022/07/21 00:08:24;;;;;;;7.28;6.88;;;;;;;19.39;100.00;101384.34;6004573;23;20019;-73
2022/07/21 00:10:50;;;;;;;6.10;5.80;;;;;;;19.69;100.00;101428.16;6016535;23;20039;-74
2022/07/21 00:13:17;;;;;;;6.05;5.75;;;;;;;19.79;100.00;101445.13;6012731;23;20089;-74
2022/07/21 00:15:43;;;;;;;6.18;5.85;;;;;;;19.57;100.00;101418.50;6046872;23;20066;-73
2022/07/21 00:18:10;;;;;;;6.03;5.72;;;;;;;19.48;100.00;101410.25;6064128;23;20053;-73
2022/07/21 00:20:36;;;;;;;6.25;5.90;;;;;;;19.21;100.00;101345.88;6047670;23;20031;-72
2022/07/21 00:23:03;;;;;;;5.80;5.50;;;;;;;19.44;100.00;101387.47;6032068;23;20045;-74
2022/07/21 00:25:30;;;;;;;6.82;6.53;;;;;;;19.40;100.00;101388.69;6047152;23;20301;-73
2022/07/21 00:28:01;;;;;;;6.13;5.82;;;;;;;19.55;100.00;101409.78;6034683;23;20015;-72
2022/07/21 00:30:27;;;;;;;7.45;7.05;;;;;;;19.65;100.00;101432.88;6053134;23;20030;-73
2022/07/21 00:32:54;;;;;;;6.05;5.53;;;;;;;19.70;100.00;101445.81;6029484;23;20018;-73
2022/07/21 00:35:20;;;;;;;7.88;7.45;;;;;;;19.15;100.00;101363.16;6042511;23;20022;-73
2022/07/21 00:37:47;;;;;;;5.93;5.63;;;;;;;19.75;100.00;101446.34;6015782;23;20298;-72
2022/07/21 00:40:13;;;;;;;6.65;6.20;;;;;;;19.76;100.00;101449.84;6050852;23;20491;-74
2022/07/21 00:42:40;;;;;;;5.90;5.60;;;;;;;19.71;100.00;101460.88;6042086;23;20094;-72
2022/07/21 00:45:08;;;;;;;6.13;5.68;;;;;;;19.66;100.00;101439.03;6078299;23;20022;-73
2022/07/21 00:47:35;;;;;;;6.43;6.03;;;;;;;19.65;100.00;101437.38;6066152;23;20089;-73
2022/07/21 00:50:05;;;;;;;6.28;5.97;;;;;;;19.22;100.00;101366.19;6046251;23;20015;-73
2022/07/21 00:52:32;;;;;;;6.88;6.57;;;;;;;19.16;100.00;101354.19;6077251;23;20291;-74
2022/07/21 00:54:58;;;;;;;5.97;5.68;;;;;;;19.15;100.00;101363.16;6082277;23;20494;-72
2022/07/21 00:57:25;;;;;;;7.50;7.00;;;;;;;19.63;100.00;101433.97;6070093;23;20305;-73
2022/07/21 00:59:51;;;;;;;6.45;6.00;;;;;;;19.60;100.00;101440.38;6074460;23;20540;-73
2022/07/21 01:02:18;;;;;;;6.45;6.15;;;;;;;19.36;100.00;101408.53;6069949;23;20026;-75
2022/07/21 01:04:44;;;;;;;5.90;5.60;;;;;;;19.53;100.00;101450.66;6043324;23;20184;-73
2022/07/21 01:07:11;;;;;;;6.28;5.95;;;;;;;19.00;100.00;101378.47;6074505;23;20435;-73
2022/07/21 01:09:37;;;;;;;5.70;5.40;;;;;;;19.44;100.00;101458.50;6062977;23;20024;-73
2022/07/21 01:12:04;;;;;;;6.10;5.70;;;;;;;19.32;100.00;101469.16;6057185;23;20231;-74
2022/07/21 01:14:32;;;;;;;7.35;6.93;;;;;;;19.09;100.00;101435.47;6067885;23;20032;-73
2022/07/21 01:17:01;;;;;;;6.15;5.80;;;;;;;18.87;100.00;101404.34;6047230;23;20026;-73
2022/07/21 01:19:29;;;;;;;7.75;7.32;;;;;;;19.31;100.00;101461.28;6071310;23;20018;-74
2022/07/21 01:21:55;;;;;;;5.90;5.60;;;;;;;19.29;100.00;101463.22;6050463;23;20014;-74
2022/07/21 01:24:22;;;;;;;6.97;6.68;;;;;;;18.99;100.00;101406.06;6078823;23;20006;-73
2022/07/21 01:26:51;;;;;;;5.90;5.60;;;;;;;19.33;100.00;101462.84;6078724;23;20014;-73
2022/07/21 01:29:18;;;;;;;6.95;6.57;;;;;;;19.16;100.00;101420.72;6080653;23;20166;-73
2022/07/21 01:31:46;;;;;;;6.20;5.90;;;;;;;19.32;100.00;101466.50;6073830;23;20027;-74
2022/07/21 01:34:13;;;;;;;5.93;5.63;;;;;;;19.18;100.00;101447.22;6080984;23;20274;-73
2022/07/21 01:36:40;;;;;;;6.00;5.70;;;;;;;19.20;100.00;101448.78;6044671;23;20115;-73
2022/07/21 01:41:52;;;;;;;5.57;5.28;;;;;;;18.92;100.00;101418.13;6082106;23;20350;-74
2022/07/21 01:44:19;;;;;;;6.88;6.40;;;;;;;19.34;100.00;101469.03;6036695;23;20009;-74
2022/07/21 01:46:49;;;;;;;6.68;6.28;;;;;;;18.96;100.00;101421.41;6052067;23;20088;-74
2022/07/21 01:49:17;;;;;;;6.57;6.18;;;;;;;19.18;100.00;101465.84;6047497;23;20024;-73
2022/07/21 01:51:44;;;;;;;5.45;5.25;;;;;;;18.91;100.00;101417.28;6050269;23;20014;-74
2022/07/21 01:54:12;;;;;;;6.00;5.70;;;;;;;19.25;100.00;101456.44;6056017;23;20014;-74
2022/07/21 01:56:39;;;;;;;6.40;6.00;;;;;;;18.81;100.00;101367.59;6050682;23;20077;-74
2022/07/21 01:59:06;;;;;;;5.80;5.40;;;;;;;19.29;100.00;101452.56;6043500;23;20023;-74
2022/07/21 02:01:34;;;;;;;6.25;5.95;;;;;;;19.25;100.00;101451.13;6021554;23;20205;-74
2022/07/21 02:04:04;;;;;;;5.70;5.40;;;;;;;19.25;100.00;101461.75;6042747;23;20455;-73
2022/07/21 02:06:31;;;;;;;7.15;6.75;;;;;;;19.16;100.00;101451.81;6056045;23;20498;-73
2022/07/21 02:08:57;;;;;;;5.70;5.40;;;;;;;18.58;100.00;101356.00;6025992;23;20266;-73
2022/07/21 02:11:24;;;;;;;6.80;6.50;;;;;;;19.03;100.00;101439.44;6052682;23;20231;-75
2022/07/21 02:13:50;;;;;;;6.00;5.70;;;;;;;19.00;100.00;101438.81;6058265;23;20069;-74
2022/07/21 02:16:17;;;;;;;5.85;5.55;;;;;;;18.95;100.00;101447.16;6053378;23;20041;-74
2022/07/21 02:18:44;;;;;;;5.78;5.47;;;;;;;18.55;100.00;101388.97;6058754;23;20349;-73
2022/07/21 02:21:10;;;;;;;5.70;5.40;;;;;;;18.92;100.00;101424.31;6055226;23;20025;-74
2022/07/21 02:23:37;;;;;;;5.60;5.35;;;;;;;18.94;100.00;101416.19;6053493;23;20268;-74
2022/07/21 02:26:03;;;;;;;5.70;5.40;;;;;;;19.15;100.00;101442.16;6058625;23;20038;-73
2022/07/21 02:28:30;;;;;;;6.00;5.60;;;;;;;19.03;100.00;101418.16;6038987;23;20392;-74
2022/07/21 02:30:56;;;;;;;6.53;5.85;;;;;;;18.69;100.00;101374.66;6058583;23;20085;-74
2022/07/21 02:33:23;;;;;;;7.25;6.82;;;;;;;19.06;100.00;101415.28;6051408;23;20507;-74
2022/07/21 02:35:49;;;;;;;6.30;5.93;;;;;;;19.28;100.00;101442.88;6056177;23;20026;-73
2022/07/21 02:38:16;;;;;;;5.88;5.55;;;;;;;18.09;100.00;101265.72;6052749;23;20030;-74
2022/07/21 02:40:42;;;;;;;5.68;5.38;;;;;;;19.27;100.00;101450.03;6055251;23;20035;-73
2022/07/21 02:43:09;;;;;;;6.00;5.70;;;;;;;18.87;100.00;101380.41;6054312;23;20028;-74
2022/07/21 02:45:36;;;;;;;6.00;5.60;;;;;;;19.12;100.00;101420.13;6050318;23;20482;-74
2022/07/21 02:48:08;;;;;;;6.32;5.93;;;;;;;19.30;100.00;101440.94;6040422;23;20030;-73
2022/07/21 02:50:37;;;;;;;7.28;6.85;;;;;;;18.96;100.00;101387.66;6050287;23;20445;-74
2022/07/21 02:53:08;;;;;;;6.55;6.15;;;;;;;19.36;100.00;101431.66;6021153;23;20030;-73
2022/07/21 02:55:36;;;;;;;6.43;6.13;;;;;;;19.36;100.00;101436.97;6044731;23;20151;-73
2022/07/21 02:58:17;;;;;;;6.00;5.70;;;;;;;19.09;100.00;101395.56;6045166;23;20041;-73
2022/07/21 03:00:48;;;;;;;6.10;5.70;;;;;;;19.32;100.00;101423.03;6050622;23;20082;-73
2022/07/21 03:03:14;;;;;;;5.70;5.40;;;;;;;19.28;100.00;101429.56;6021980;23;20097;-75
2022/07/21 03:05:41;;;;;;;6.57;6.18;;;;;;;19.29;100.00;101434.78;6050133;23;21394;-74
2022/07/21 03:08:09;;;;;;;5.97;5.65;;;;;;;18.97;100.00;101388.53;6015691;23;20033;-74
2022/07/21 03:10:37;;;;;;;5.70;5.40;;;;;;;19.22;100.00;101432.72;6048714;23;20034;-73
2022/07/21 03:13:05;;;;;;;6.38;5.78;;;;;;;19.20;100.00;101427.50;6030716;23;20023;-74
2022/07/21 03:15:32;;;;;;;7.35;6.95;;;;;;;19.16;100.00;101425.22;6047638;23;20030;-74
2022/07/21 03:17:59;;;;;;;5.60;5.30;;;;;;;19.04;100.00;101405.72;6020135;23;20029;-74
2022/07/21 03:20:27;;;;;;;7.57;7.07;;;;;;;19.12;100.00;101413.94;6051569;23;20109;-74
2022/07/21 03:22:54;;;;;;;6.22;5.82;;;;;;;18.87;100.00;101372.44;5999407;23;20045;-74
2022/07/21 03:25:21;;;;;;;7.30;6.90;;;;;;;18.66;100.00;101350.94;6051965;23;20045;-74
2022/07/21 03:27:48;;;;;;;6.15;5.68;;;;;;;18.83;100.00;101370.97;6065844;23;20015;-74
2022/07/21 03:30:15;;;;;;;6.18;5.88;;;;;;;18.64;100.00;101339.56;6050846;23;20023;-76
2022/07/21 03:32:42;;;;;;;5.93;5.40;;;;;;;18.76;100.00;101362.56;6044493;23;20101;-75
2022/07/21 03:35:10;;;;;;;7.00;6.50;;;;;;;19.03;100.00;101404.88;6054480;23;20526;-75
2022/07/21 03:37:44;;;;;;;6.47;6.10;;;;;;;18.98;100.00;101406.19;6062083;23;20055;-74
2022/07/21 03:40:14;;;;;;;5.72;5.43;;;;;;;18.98;100.00;101401.69;6040795;23;20032;-74
2022/07/21 03:42:40;;;;;;;6.30;5.90;;;;;;;18.87;100.00;101385.72;6027587;23;20486;-73
2022/07/21 03:45:08;;;;;;;6.03;5.72;;;;;;;18.96;100.00;101405.44;6052154;23;20022;-74
2022/07/21 03:47:35;;;;;;;6.57;6.28;;;;;;;18.95;100.00;101399.28;6017543;23;20385;-74
2022/07/21 03:50:03;;;;;;;5.95;5.63;;;;;;;18.95;100.00;101398.44;6025683;23;20014;-74
2022/07/21 03:52:29;;;;;;;7.20;6.80;;;;;;;18.95;100.00;101401.09;6018401;23;20037;-73
2022/07/21 03:55:07;;;;;;;6.82;6.25;;;;;;;18.61;100.00;101355.78;6052680;23;20035;-75
2022/07/21 03:57:47;;;;;;;5.88;5.50;;;;;;;18.90;100.00;101399.66;6038320;23;20080;-74
2022/07/21 04:00:17;;;;;;;6.45;6.05;;;;;;;17.77;100.00;101251.31;6048893;23;20033;-72
2022/07/21 04:02:46;;;;;;;5.82;5.53;;;;;;;18.47;100.00;101327.56;6078008;23;20029;-71
2022/07/21 04:05:13;;;;;;;7.28;6.60;;;;;;;18.92;100.00;101395.06;6042051;23;20019;-73
2022/07/21 04:07:41;;;;;;;5.93;5.63;;;;;;;18.92;100.00;101392.41;6050620;23;20022;-72
2022/07/21 04:10:10;;;;;;;6.40;5.95;;;;;;;18.48;100.00;101324.81;6046895;23;20018;-72
2022/07/21 04:12:37;;;;;;;5.70;5.40;;;;;;;18.76;100.00;101359.06;6051625;23;20006;-72
2022/07/21 04:15:05;;;;;;;5.93;5.53;;;;;;;18.90;100.00;101388.13;6055821;23;20014;-72
2022/07/21 04:17:32;;;;;;;7.35;6.95;;;;;;;18.52;100.00;101334.25;6051106;23;20037;-71
2022/07/21 04:19:58;;;;;;;5.78;5.40;;;;;;;18.53;100.00;101337.75;6046366;23;20142;-72
2022/07/21 04:22:25;;;;;;;7.72;7.03;;;;;;;18.91;100.00;101379.22;6026796;23;20138;-73
2022/07/21 04:24:51;;;;;;;5.55;5.32;;;;;;;18.02;100.00;101218.47;6051902;23;20027;-72
2022/07/21 04:27:18;;;;;;;7.13;6.72;;;;;;;18.92;100.00;101370.25;6048675;23;20015;-72
2022/07/21 04:29:46;;;;;;;7.50;5.97;;;;;;;18.96;100.00;101370.88;6050774;23;20006;-71
2022/07/21 04:32:13;;;;;;;6.32;5.93;;;;;;;19.03;100.00;101370.28;6021747;23;20023;-72
2022/07/21 04:34:39;;;;;;;5.80;5.50;;;;;;;19.11;100.00;101375.84;6053587;23;20006;-72
2022/07/21 04:37:06;;;;;;;5.55;5.28;;;;;;;18.84;100.00;101303.50;6051669;23;20022;-72
2022/07/21 04:39:32;;;;;;;6.63;6.32;;;;;;;19.44;100.00;101379.50;6049362;23;20069;-71
2022/07/21 04:41:59;;;;;;;5.88;5.57;;;;;;;19.54;100.00;101371.63;6051769;23;20105;-72
2022/07/21 04:44:25;;;;;;;6.90;6.50;;;;;;;19.63;100.00;101378.06;6038633;23;20023;-73
2022/07/21 04:46:52;;;;;;;6.57;6.07;;;;;;;19.59;100.00;101348.16;6052245;23;20132;-72
2022/07/21 04:49:18;;;;;;;6.97;6.47;;;;;;;19.37;100.00;101306.44;6052382;23;20022;-73
2022/07/21 04:51:45;;;;;;;6.50;6.10;;;;;;;20.00;100.00;101383.09;6027843;23;20034;-73
2022/07/21 04:54:13;;;;;;;6.53;6.10;;;;;;;20.15;100.00;101397.84;6048394;23;20104;-72
2022/07/21 04:56:41;;;;;;;5.90;5.60;;;;;;;20.23;100.00;101390.06;6035034;23;20613;-73
2022/07/21 04:59:08;;;;;;;6.03;5.72;;;;;;;20.37;100.00;101385.44;6041771;23;20692;-72
2022/07/21 05:01:36;;;;;;;6.68;6.32;;;;;;;20.01;100.00;101312.88;6011079;23;20034;-72
2022/07/21 05:04:04;;;;;;;6.47;6.07;;;;;;;20.73;100.00;101394.88;6040034;23;20494;-73
2022/07/21 05:06:31;;;;;;;7.30;6.90;;;;;;;20.57;100.00;101330.41;6048852;23;20628;-71
2022/07/21 05:08:58;;;;;;;5.90;5.60;;;;;;;21.14;100.00;101395.84;6032435;23;20584;-72
2022/07/21 05:11:24;;;;;;;7.13;6.72;;;;;;;21.26;100.00;101409.94;6050550;23;20026;-73
2022/07/21 05:13:51;;;;;;;6.40;6.05;;;;;;;21.29;100.00;101423.06;6020316;23;20036;-72
2022/07/21 05:16:18;;;;;;;6.63;6.22;;;;;;;21.02;100.00;101371.03;6052729;23;20030;-73
2022/07/21 05:18:45;;;;;;;6.43;5.97;;;;;;;21.23;100.00;101375.53;6049225;23;20691;-73
2022/07/21 05:21:11;;;;;;;6.68;6.28;;;;;;;20.65;100.00;101288.84;6045264;23;20029;-72
2022/07/21 05:23:38;;;;;;;6.15;5.85;;;;;;;20.86;100.00;101349.31;6048223;23;20044;-72
2022/07/21 05:26:04;;;;;;;6.05;5.75;;;;;;;20.54;100.00;101355.53;6048507;23;20630;-72
2022/07/21 05:28:30;;;;;;;6.72;6.43;;;;;;;20.79;100.00;101433.50;6024713;23;20030;-73
2022/07/21 05:30:57;;;;;;;6.53;6.13;;;;;;;20.62;100.00;101446.44;6022909;23;20028;-71
2022/07/21 05:33:24;;;;;;;7.70;7.30;;;;;;;20.55;100.00;101436.38;6053314;23;20037;-71
2022/07/21 05:35:50;;;;;;;6.25;5.93;;;;;;;20.11;100.00;101399.91;6056022;23;20108;-72
2022/07/21 05:38:17;;;;;;;6.30;6.00;;;;;;;20.11;100.00;101405.25;6049499;23;20027;-72
2022/07/21 05:40:48;;;;;;;6.28;5.88;;;;;;;19.77;100.00;101369.84;6058678;23;20078;-72
2022/07/21 05:43:14;;;;;;;6.30;5.90;;;;;;;19.64;100.00;101351.28;6062010;23;20038;-72
2022/07/21 05:45:40;;;;;;;6.10;5.80;;;;;;;20.11;100.00;101433.72;6082426;23;20793;-72
2022/07/21 05:48:07;;;;;;;6.38;5.75;;;;;;;19.04;100.00;101275.34;6056840;23;20498;-71
2022/07/21 05:50:33;;;;;;;6.72;6.43;;;;;;;20.17;100.00;101430.56;6057308;23;20046;-72
2022/07/21 05:53:00;;;;;;;5.85;5.47;;;;;;;19.90;100.00;101372.34;6084085;23;20062;-71
2022/07/21 05:55:27;;;;;;;6.85;6.55;;;;;;;20.06;100.00;101391.44;6055218;23;20097;-72
2022/07/21 05:57:53;;;;;;;6.40;6.00;;;;;;;20.11;100.00;101388.41;6081680;23;21167;-72
2022/07/21 06:00:20;;;;;;;6.70;6.40;;;;;;;20.23;100.00;101437.22;6059223;23;20100;-71
2022/07/21 06:02:46;;;;;;;5.95;5.65;;;;;;;20.21;100.00;101424.00;6079175;23;20040;-72
2022/07/21 06:05:13;;;;;;;7.38;6.97;;;;;;;18.71;100.00;101208.72;6054455;23;20054;-71
2022/07/21 06:07:40;;;;;;;5.60;5.30;;;;;;;19.21;100.00;101280.19;6085898;23;20032;-72
2022/07/21 06:10:07;;;;;;;6.10;5.80;;;;;;;19.63;100.00;101370.06;6061765;23;20136;-72
2022/07/21 06:12:40;;;;;;;5.30;5.10;;;;;;;20.01;100.00;101432.78;6079774;23;20033;-71
2022/07/21 06:15:07;;;;;;;6.30;5.90;;;;;;;19.89;100.00;101424.78;6080108;23;20017;-72
2022/07/21 06:17:45;;;;;;;6.40;6.10;;;;;;;20.04;100.00;101421.84;6075765;23;20338;-72
2022/07/21 06:20:12;;;;;;;6.30;5.90;;;;;;;20.22;100.00;101415.03;6042983;23;20030;-72
2022/07/21 06:22:39;;;;;;;6.53;6.10;;;;;;;20.49;100.00;101411.09;6048618;23;20380;-72
2022/07/21 06:25:06;;;;;;;7.47;5.82;;;;;;;20.78;100.00;101407.81;6078861;23;20093;-72
2022/07/21 06:27:32;;;;;;;7.15;6.75;;;;;;;21.14;100.00;101411.00;6064568;23;20361;-72
2022/07/21 06:29:59;;;;;;;6.30;5.88;;;;;;;21.65;100.00;101402.13;6055198;23;20026;-72
2022/07/21 06:32:26;;;;;;;6.80;6.50;;;;;;;21.95;100.00;101400.41;6080593;23;20738;-72
2022/07/21 06:34:52;;;;;;;6.15;5.85;;;;;;;21.91;99.63;101389.16;6047583;23;20594;-71
2022/07/21 06:37:18;;;;;;;6.75;6.35;;;;;;;21.63;99.46;101364.91;6081079;23;20032;-72
2022/07/21 06:39:45;;;;;;;6.47;6.10;;;;;;;21.87;98.41;101393.94;6065474;23;20022;-72
2022/07/21 06:42:12;;;;;;;7.22;6.70;;;;;;;21.68;98.96;101417.91;6074798;23;20115;-72
2022/07/21 06:44:38;;;;;;;5.75;5.45;;;;;;;21.35;100.00;101347.75;6033871;23;20092;-72
2022/07/21 06:47:05;;;;;;;6.30;5.90;;;;;;;21.35;100.00;101369.13;6034513;23;20026;-72
2022/07/21 06:49:32;;;;;;;6.05;5.75;;;;;;;21.57;98.86;101434.03;6061463;23;20014;-71
2022/07/21 06:51:58;;;;;;;6.18;5.88;;;;;;;21.52;100.00;101427.25;6029325;23;20397;-72
2022/07/21 06:54:25;;;;;;;7.45;7.05;;;;;;;21.38;98.83;101382.19;6016970;23;20029;-73
2022/07/21 06:56:52;;;;;;;6.10;5.80;;;;;;;21.66;100.00;101442.06;6023531;23;20038;-71
2022/07/21 06:59:18;;;;;;;6.47;6.18;;;;;;;21.67;98.67;101441.13;6033945;23;20022;-72
2022/07/21 07:01:44;;;;;;;5.88;5.57;;;;;;;21.75;98.75;101415.53;6045221;23;20023;-72
2022/07/21 07:04:11;;;;;;;6.15;5.78;;;;;;;21.94;97.91;101375.50;6037545;23;20037;-72
2022/07/21 07:06:39;;;;;;;6.43;6.13;;;;;;;21.75;95.68;101301.53;6017090;23;20508;-72
2022/07/21 07:09:06;;;;;;;5.97;5.68;;;;;;;22.28;91.85;101385.88;6022530;23;20065;-72
2022/07/21 07:11:34;;;;;;;6.93;6.53;;;;;;;22.13;93.19;101344.44;6041702;23;20074;-72
2022/07/21 07:14:00;;;;;;;18.35;17.40;;;;;;;22.97;92.00;101457.09;6020957;23;20010;-73
2022/07/21 07:16:43;;;;;;;6.47;6.07;;;;;;;23.19;90.40;101397.03;5884531;23;20031;-72
2022/07/21 07:19:09;;;;;;;5.80;5.50;;;;;;;23.45;85.30;101353.53;6052545;23;20269;-73
2022/07/21 07:21:36;;;;;;;6.32;6.03;;;;;;;24.14;82.50;101446.03;6017334;23;20253;-72
2022/07/21 07:24:03;;;;;;;6.30;5.90;;;;;;;23.05;81.53;101385.00;6031565;23;20277;-73
2022/07/21 07:26:29;;;;;;;7.68;7.13;;;;;;;23.50;83.30;101432.47;6041021;23;20014;-73
2022/07/21 07:28:56;;;;;;;6.10;5.80;;;;;;;23.64;82.88;101459.81;6045915;23;20077;-73
2022/07/21 07:31:23;;;;;;;7.93;7.50;;;;;;;23.62;81.75;101429.63;6022382;23;20048;-71
2022/07/21 07:33:49;;;;;;;6.20;5.90;;;;;;;23.54;82.34;101449.13;6023808;23;20019;-72
2022/07/21 07:36:18;;;;;;;6.88;6.57;;;;;;;23.09;82.21;101366.78;6041403;23;20754;-72
2022/07/21 07:38:47;;;;;;;6.38;6.03;;;;;;;23.89;81.86;101458.28;6042074;23;20250;-72
2022/07/21 07:41:14;;;;;;;6.50;6.15;;;;;;;23.95;80.13;101413.97;6050767;23;20102;-73
2022/07/21 07:43:41;;;;;;;6.38;6.05;;;;;;;23.94;79.29;101447.16;6039563;23;20179;-72
2022/07/21 07:46:10;;;;;;;6.40;6.10;;;;;;;23.69;74.19;101390.50;6023241;23;20354;-73
2022/07/21 07:48:37;;;;;;;6.00;5.70;;;;;;;23.93;75.50;101454.31;6047558;23;20037;-73
2022/07/21 07:51:04;;;;;;;6.50;6.10;;;;;;;23.60;78.91;101397.63;6024310;23;20019;-72
2022/07/21 07:53:30;;;;;;;7.25;6.85;;;;;;;23.87;76.62;101358.41;6029760;23;20077;-73
2022/07/21 07:55:57;;;;;;;6.20;5.90;;;;;;;24.22;73.74;101461.38;6046635;23;20050;-72
2022/07/21 07:58:24;;;;;;;7.88;7.43;;;;;;;24.08;75.73;101417.16;6040115;23;20167;-73
2022/07/21 08:00:50;;;;;;;6.70;6.30;;;;;;;24.30;71.95;101477.56;6030856;23;20026;-72
2022/07/21 08:03:22;;;;;;;7.22;6.85;;;;;;;24.29;73.69;101449.91;6047698;23;20030;-72
2022/07/21 08:05:48;;;;;;;6.57;6.18;;;;;;;24.93;72.56;101455.19;6053084;23;20066;-71
2022/07/21 08:08:16;;;;;;;6.63;6.22;;;;;;;24.51;70.70;101358.38;6046281;23;20438;-73
2022/07/21 08:10:45;;;;;;;6.40;6.10;;;;;;;24.74;70.02;101463.44;6049401;23;20122;-72
2022/07/21 08:13:14;;;;;;;6.05;5.68;;;;;;;24.46;70.54;101458.94;6042193;23;20550;-74
2022/07/21 08:15:41;;;;;;;6.07;5.78;;;;;;;24.63;71.87;101483.28;6019198;23;20022;-72
2022/07/21 08:18:08;;;;;;;6.53;6.13;;;;;;;24.66;70.52;101470.41;6051756;23;20081;-72
2022/07/21 08:20:35;;;;;;;9.63;6.60;;;;;;;24.47;71.22;101478.56;6044807;23;20022;-72
2022/07/21 08:23:02;;;;;;;5.72;5.43;;;;;;;23.93;71.33;101421.31;6048657;23;21504;-72
2022/07/21 08:25:29;;;;;;;8.02;7.55;;;;;;;24.11;72.46;101480.34;6035373;23;20102;-72
2022/07/21 08:27:55;;;;;;;6.10;5.80;;;;;;;23.31;71.95;101400.41;6020735;23;20026;-73
2022/07/21 08:30:22;;;;;;;7.88;7.47;;;;;;;22.98;74.45;101458.78;6044853;23;20092;-72
2022/07/21 08:32:55;;;;;;;6.68;5.90;;;;;;;23.08;76.32;101424.84;6018607;23;20019;-72
2022/07/21 08:35:22;;;;;;;7.47;6.97;;;;;;;23.53;75.24;101502.84;6024390;23;20032;-71
2022/07/21 08:38:00;;;;;;;5.97;5.68;;;;;;;23.39;74.19;101498.78;6048649;23;20026;-72
2022/07/21 08:40:29;;;;;;;7.45;7.05;;;;;;;22.99;73.42;101430.19;6020728;23;20281;-71
2022/07/21 08:42:55;;;;;;;6.10;5.80;;;;;;;23.37;73.10;101449.88;6019603;23;20453;-72
2022/07/21 08:45:23;;;;;;;7.78;7.28;;;;;;;23.98;71.86;101427.09;6018706;23;20099;-73
2022/07/21 08:47:52;;;;;;;5.85;5.55;;;;;;;24.89;68.57;101483.34;6047668;23;20018;-72
2022/07/21 08:50:21;;;;;;;6.93;6.60;;;;;;;25.33;67.08;101469.94;6048994;23;20022;-72
2022/07/21 08:52:48;;;;;;;6.20;5.90;;;;;;;25.98;64.73;101479.38;6048366;23;20141;-72
2022/07/21 08:55:14;;;;;;;6.82;6.43;;;;;;;25.98;62.54;101457.88;6019066;23;20456;-73
2022/07/21 08:57:41;;;;;;;6.38;5.97;;;;;;;25.37;63.57;101513.47;6048823;23;20337;-72
2022/07/21 09:00:13;;;;;;;6.63;6.20;;;;;;;25.09;65.03;101447.25;6027642;23;20092;-71
2022/07/21 09:02:39;;;;;;;5.90;5.60;;;;;;;25.08;64.61;101456.31;6052398;23;20389;-71
2022/07/21 09:05:08;;;;;;;6.53;6.13;;;;;;;24.67;62.63;101418.41;6013005;23;20022;-73
2022/07/21 09:07:55;;;;;;;6.40;5.90;;;;;;;25.36;61.40;101501.03;6044995;23;20025;-72
2022/07/21 09:10:23;;;;;;;7.55;7.15;;;;;;;25.39;62.22;101509.63;6037086;23;20076;-72
2022/07/21 09:12:55;;;;;;;6.90;6.40;;;;;;;25.32;60.80;101505.91;6021962;23;20015;-72
2022/07/21 09:15:24;;;;;;;7.72;7.22;;;;;;;25.17;60.21;101515.47;6041980;23;20140;-72
2022/07/21 09:18:10;;;;;;;6.05;5.75;;;;;;;25.26;61.27;101510.06;6025772;23;20102;-72
2022/07/21 09:21:00;;;;;;;6.38;6.05;;;;;;;25.41;61.17;101510.31;6045824;23;20479;-72
2022/07/21 09:23:26;;;;;;;7.47;7.07;;;;;;;24.96;62.07;101437.94;6044586;23;20484;-72
2022/07/21 09:25:55;;;;;;;6.75;6.25;;;;;;;25.18;61.28;101433.91;6052448;23;20015;-72
2022/07/21 09:28:26;;;;;;;6.85;6.55;;;;;;;25.64;59.53;101516.00;6043376;23;20471;-73
2022/07/21 09:31:00;;;;;;;6.45;6.10;;;;;;;25.53;60.99;101520.81;6031989;23;20104;-72
2022/07/21 09:33:37;;;;;;;7.43;7.03;;;;;;;25.82;61.04;101515.94;6038873;23;20121;-72
2022/07/21 09:36:05;;;;;;;6.15;5.85;;;;;;;25.66;61.28;101519.38;6028819;23;20050;-71
2022/07/21 09:38:34;;;;;;;7.55;7.15;;;;;;;25.51;59.67;101526.34;6049115;23;20018;-72
2022/07/21 09:41:09;;;;;;;6.50;6.10;;;;;;;25.58;61.17;101495.16;6029561;23;20085;-72
2022/07/21 09:43:41;;;;;;;6.07;5.78;;;;;;;26.04;60.48;101511.00;6052234;23;20525;-72
2022/07/21 09:46:10;;;;;;;7.20;6.65;;;;;;;26.00;58.10;101442.41;6044989;23;20033;-73
2022/07/21 09:48:39;;;;;;;6.82;6.50;;;;;;;26.17;57.76;101522.16;6016914;23;20011;-72
2022/07/21 09:51:29;;;;;;;6.10;5.80;;;;;;;24.83;58.45;101357.78;6031074;23;20094;-72
2022/07/21 09:54:10;;;;;;;6.55;6.15;;;;;;;26.00;57.93;101525.78;6010475;23;20023;-72
2022/07/21 09:56:39;;;;;;;6.88;6.47;;;;;;;26.09;58.45;101527.53;6007532;23;20019;-71
2022/07/21 09:59:08;;;;;;;6.32;5.97;;;;;;;24.67;59.49;101447.09;6018735;23;20027;-72
2022/07/21 10:01:36;;;;;;;6.18;5.88;;;;;;;23.87;61.43;101378.06;6041156;23;20475;-72
2022/07/21 10:04:06;;;;;;;6.30;5.90;;;;;;;24.16;62.85;101545.13;6026250;23;20277;-71
2022/07/21 10:06:35;;;;;;;7.03;6.72;;;;;;;23.48;64.81;101498.75;6046662;23;20026;-72
2022/07/21 10:09:04;;;;;;;6.07;5.78;;;;;;;23.76;65.88;101573.88;6023807;23;20023;-72
2022/07/21 10:11:30;;;;;;;8.38;7.88;;;;;;;23.41;67.64;101561.09;6050305;23;20026;-72
2022/07/21 10:13:57;;;;;;;6.13;5.82;;;;;;;22.83;68.05;101503.03;6023813;23;20418;-72
2022/07/21 10:16:23;;;;;;;7.47;6.93;;;;;;;23.09;69.01;101578.31;6011606;23;20584;-73
2022/07/21 10:19:04;;;;;;;5.90;5.60;;;;;;;22.82;71.32;101576.28;6026469;23;20035;-72
2022/07/21 10:21:51;;;;;;;8.38;7.68;;;;;;;22.92;71.48;101569.13;6047532;23;20010;-73
2022/07/21 10:24:18;;;;;;;7.30;6.90;;;;;;;22.93;71.97;101580.66;6029503;23;20352;-73
2022/07/21 10:27:05;;;;;;;6.57;6.18;;;;;;;23.04;71.08;101554.63;6024596;23;20010;-72
2022/07/21 10:29:55;;;;;;;7.43;7.00;;;;;;;22.99;72.75;101574.75;6020805;23;20018;-72
2022/07/21 10:32:47;;;;;;;7.72;7.32;;;;;;;22.69;73.31;101539.06;6019441;23;20089;-72
2022/07/21 10:35:29;;;;;;;6.45;6.15;;;;;;;22.77;75.30;101578.53;6052935;23;20270;-72
2022/07/21 10:37:56;;;;;;;6.20;5.90;;;;;;;22.36;78.63;101525.06;6015423;23;20023;-72
2022/07/21 10:40:24;;;;;;;8.52;7.80;;;;;;;22.63;80.34;101577.09;6010824;23;20365;-72
2022/07/21 10:42:59;;;;;;;6.68;6.28;;;;;;;22.63;81.81;101580.63;6047116;23;20018;-72
2022/07/21 10:45:31;;;;;;;7.63;7.22;;;;;;;22.79;83.60;101572.06;6046007;23;20098;-72
2022/07/21 10:47:59;;;;;;;6.05;5.75;;;;;;;23.15;82.47;101576.91;6077217;23;20040;-74
2022/07/21 10:50:35;;;;;;;8.10;7.53;;;;;;;23.40;81.31;101579.00;6044224;23;20431;-72
2022/07/21 10:53:13;;;;;;;6.65;6.35;;;;;;;23.43;81.04;101565.34;6046534;23;20018;-71
2022/07/21 10:55:47;;;;;;;6.38;5.97;;;;;;;23.14;80.17;101583.25;6050599;23;20073;-72
2022/07/21 10:58:23;;;;;;;6.45;6.07;;;;;;;23.00;83.43;101584.47;6064456;23;20268;-72
2022/07/21 11:00:54;;;;;;;7.03;6.47;;;;;;;22.73;86.61;101567.25;6068990;23;20034;-72
2022/07/21 11:03:30;;;;;;;7.75;7.35;;;;;;;22.31;89.65;101588.81;6055535;23;20027;-74
2022/07/21 11:06:05;;;;;;;6.13;5.80;;;;;;;22.36;89.50;101601.78;6076334;23;20017;-72
2022/07/21 11:08:36;;;;;;;8.10;7.60;;;;;;;22.39;90.39;101590.81;6039477;23;20023;-72
2022/07/21 11:11:14;;;;;;;7.55;7.05;;;;;;;22.25;90.87;101574.19;6076730;23;20396;-72
2022/07/21 11:13:59;;;;;;;6.10;5.80;;;;;;;22.26;91.56;101586.53;6053212;23;20279;-73
2022/07/21 11:16:52;;;;;;;7.68;7.28;;;;;;;22.23;92.80;101586.81;6072839;23;20166;-72
2022/07/21 11:19:38;;;;;;;;;;;;;;;21.90;94.33;101590.56;6044662;23;20181;-72
2022/07/21 11:22:22;;;;;;;6.35;6.05;;;;;;;21.30;97.94;101548.38;6046953;23;19907;-72
2022/07/21 11:24:54;;;;;;;6.75;6.35;;;;;;;21.47;100.00;101584.41;6072514;23;20103;-73
2022/07/21 11:27:30;;;;;;;7.97;7.57;;;;;;;21.50;100.00;101581.44;6074087;23;20486;-72
2022/07/21 11:29:59;;;;;;;7.13;6.72;;;;;;;21.08;100.00;101497.78;6057656;23;20047;-71